x

Nantucket Sound (44020) Wave Buoy

2:50pm - Fri 1st Jul 2016 All times are EDT. -4 hours from GMT.

  • Sig Wave height 1.0ft
  • Swell Direction
  • Peak Period 2s
  • Average Period 3s
  • Wind
    13mph, 16mph gusts
  • Sea Temp 69°f
  • Air Temp 71°f
  • Sea Pressure 1016.4mb
  • Nantucket Sound
  • Nantucket Sound

More Historic Weather Station data

Upgrade to MSW Pro to gain access to the past 30 days of data for over 8000 Wavebouys and Weather Stations around the globe.

Join Pro

Comparision Forecast

View Surf forecast
   
Fri 07/01 2:50pm 1ft 2s 3s 13 16 mph 1016.4mb 69f 71f
1:50pm 1.3ft 3s 3s 11 13 mph 1016.8mb 69f 70f
12:50pm 1.3ft 3s 3s 16 18 mph 1017.1mb 69f 70f
11:50am 1.3ft 3s 3s 13
mph
1017.4mb 70f 70f
10:50am 1.3ft 5s 3s 13 18 mph 1017.3mb 70f 70f
9:50am 1.3ft 8s 3s 13 16 mph 1017.4mb 69f 70f
8:50am 1.3ft 2s 3s 13 18 mph 1017.4mb 69f 69f
7:50am 1ft 3s 3s 16 18 mph 1017.5mb 69f 69f
6:50am 0.7ft  -  3s 11 13 mph 1017.3mb 69f 69f
5:50am 0.7ft  -  3s 13 16 mph 1017.2mb 69f 69f
4:50am 0.7ft  -  3s 11 13 mph 1017.2mb 69f 68f
3:50am 0.7ft  -  4s 13 16 mph 1017.1mb 69f 68f
2:50am 0.7ft  -  4s 11 13 mph 1017mb 68f 68f
1:50am 1ft 9s 4s 9
mph
1017.2mb 68f 69f
12:50am 1ft 9s 4s 9 11 mph 1017.4mb 68f 69f
Thu 06/30 11:50pm 1.3ft 3s 3s 11 16 mph 1017.3mb 69f 69f
10:50pm 1.3ft 8s 4s 13 16 mph 1017.3mb 69f 69f
9:50pm 1.3ft 8s 4s 9 11 mph 1017mb 69f 69f
7:50pm 1ft 8s 5s 11
mph
1016.3mb 69f 70f
6:50pm 1ft 7s 4s 9
mph
1016.1mb 70f 70f
5:50pm 0.7ft  -  4s 9 11 mph 1015.7mb 70f 70f
4:50pm 0.7ft  -  4s 7 9 mph 1015.7mb 70f 70f
3:50pm 0.7ft  -  4s 7 9 mph 1015.5mb 71f 70f
2:50pm 1ft 4s 4s 7 9 mph 1015.2mb 72f 70f
1:50pm 1ft 8s 4s 4
mph
1015.2mb 71f 72f
12:50pm 1ft 9s 4s 2
mph
1015mb 70f 71f
11:50am 1ft 7s 4s  -  mph 1015mb 69f 71f
10:50am 1ft 7s 4s 4 7 mph 1014.9mb 69f 71f
9:50am 1.3ft 7s 4s 7 9 mph 1014.5mb 69f 70f
8:50am 1.3ft 6s 4s 11
mph
1014.2mb 69f 69f
7:50am 1ft 7s 5s 9 11 mph 1013.8mb 69f 69f
6:50am 1ft 7s 4s 9 11 mph 1013.2mb 69f 70f
5:50am 0.7ft  -  4s 7 9 mph 1012.5mb 69f 68f
4:50am 0.7ft  -  4s 11 13 mph 1011.9mb 69f 67f
3:50am 0.7ft  -  3s 11 13 mph 1011.5mb 69f 67f
2:50am 1ft 2s 3s 11 13 mph 1011.4mb 68f 67f
1:50am 1ft 6s 3s 13 16 mph 1011.3mb 68f 66f
12:50am 1ft 2s 3s 11 13 mph 1011.5mb 68f 66f
Wed 06/29 11:50pm 1ft 8s 4s 11 13 mph 1011.8mb 68f 67f
10:50pm 1ft 8s 4s 9 13 mph 1011.8mb 69f 67f
9:50pm 1ft 7s 4s 9 11 mph 1011.7mb 69f 68f
8:50pm 1ft 8s 3s 9 11 mph 1011.3mb 69f 68f
7:50pm 1.3ft 8s 4s 11 13 mph 1011.4mb 69f 67f
6:50pm 1.3ft 6s 3s 11 16 mph 1011mb 69f 68f
5:50pm 1ft 3s 3s 13 16 mph 1010.9mb 69f 68f
4:50pm 1ft 3s 3s 13 16 mph 1011mb 69f 68f
3:50pm 1ft 3s 3s 16 18 mph 1011.3mb 69f 69f
2:50pm 1ft 2s 3s 13 16 mph 1011.2mb 69f 70f
1:50pm 1ft 6s 3s 11 16 mph 1011.4mb 69f 69f
12:50pm 1ft 2s 3s 11 13 mph 1011.8mb 68f 69f
11:50am 1ft 2s 3s 11 13 mph 1012.1mb 68f 69f
10:50am 1ft 7s 3s 13 16 mph 1012mb 68f 69f
9:50am 1ft 7s 3s 7
mph
1012mb 68f 69f
8:50am 1ft 7s 3s 9 11 mph 1012.3mb 68f 68f
7:50am 1.3ft 7s 3s 9 11 mph 1012.1mb 68f 69f
6:50am 1ft 6s 4s 11 16 mph 1012mb 68f 69f
5:50am 1ft 3s 3s 9 11 mph 1012.1mb 68f 69f
3:50am 0.7ft  -  3s 11 13 mph 1012.4mb 68f 69f
2:50am 0.7ft  -  3s 7 9 mph 1012.4mb 68f 69f
1:50am 0.7ft  -  3s 13 16 mph 1013.1mb 68f 69f
12:50am 0.7ft  -  4s 9 11 mph 1013.6mb 67f 68f
Tue 06/28 11:50pm 0.7ft  -  3s 9 11 mph 1013.8mb 67f 69f
10:50pm 0.7ft  -  3s 11
mph
1013.7mb 68f 69f
9:50pm 0.7ft  -  3s 9 11 mph 1014.3mb 68f 68f
8:50pm 0.7ft  -  4s 9 11 mph 1014.2mb 68f 68f
7:50pm 1ft 7s 4s 7 9 mph 1013.9mb 68f 69f
6:50pm 1ft 7s 4s 4
mph
1014mb 68f 69f
5:50pm 1ft 8s 4s 7
mph
1014.2mb 68f 70f
4:50pm 0.7ft  -  4s 4 7 mph 1014.6mb 68f 70f
3:50pm 0.7ft  -  3s 9
mph
1015.2mb 68f 70f
2:50pm 0.7ft  -  3s 9 11 mph 1015.4mb 69f 69f
1:50pm 0.7ft  -  3s 9 11 mph 1015.9mb 68f 69f
12:50pm 0.7ft  -  3s 9
mph
1016.2mb 68f 69f
11:50am 1ft 3s 3s 9 11 mph 1016.5mb 67f 69f
10:50am 1ft 5s 3s 13 16 mph 1016.7mb 67f 68f
9:50am 1.3ft 3s 3s 11 16 mph 1016.9mb 68f 68f
8:50am 1.3ft 3s 3s 13 16 mph 1016.8mb 68f 68f
7:50am 1.3ft 3s 3s 13 16 mph 1016.9mb 68f 68f
6:50am 1.6ft 3s 3s 16 20 mph 1016.3mb 68f 68f
5:50am 1.6ft 3s 3s 16 18 mph 1016.3mb 68f 68f
4:50am 1.6ft 3s 3s 16 18 mph 1016.4mb 68f 68f
3:50am 1.3ft 3s 3s 16 18 mph 1016.4mb 68f 69f
2:50am 1.6ft 3s 3s 16 20 mph 1016.9mb 68f 69f
1:50am 1.6ft 3s 3s 18 20 mph 1017.2mb 68f 69f
12:50am 1.6ft 3s 3s 20 22 mph 1017.4mb 67f 69f
Mon 06/27 11:50pm 1.3ft 3s 3s 16 20 mph 1017.9mb 67f 68f
10:50pm 1.3ft 3s 3s 16 18 mph 1018.2mb 67f 68f
9:50pm 1.3ft 3s 3s 16 18 mph 1018.2mb 67f 68f
8:50pm 1.3ft 3s 3s 16 18 mph 1018mb 68f 68f
7:50pm 1.3ft 3s 3s 16 18 mph 1017.9mb 68f 68f